Time,TemperatureF,DewpointF,PressureIn,WindDirection,WindDirectionDegrees,WindSpeedMPH,WindSpeedGustMPH,Humidity,HourlyPrecipIn,Conditions,Clouds,dailyrainin,SolarRadiationWatts/m^2,SoftwareType,DateUTC
2013-04-08 00:00:00,33.6,29.6,29.70,WSW,256,5.0,5.0,85,0.00,,,0.00,0,Wunderground v.1.15,2013-04-08 07:00:00,
2013-04-08 00:05:00,33.7,29.7,29.70,West,267,4.0,5.0,85,0.00,,,0.00,0,Wunderground v.1.15,2013-04-08 07:05:00,
2013-04-08 00:10:00,33.7,29.7,29.70,West,269,8.0,8.0,85,0.00,,,0.00,0,Wunderground v.1.15,2013-04-08 07:10:00,
2013-04-08 00:20:00,33.6,29.9,29.71,West,262,11.0,11.0,86,0.00,,,0.00,0,Wunderground v.1.15,2013-04-08 07:20:00,
2013-04-08 00:30:00,33.4,29.7,29.71,West,271,5.0,5.0,86,0.00,,,0.00,0,Wunderground v.1.15,2013-04-08 07:30:00,
2013-04-08 00:40:00,33.2,29.8,29.71,West,262,6.0,6.0,87,0.00,,,0.00,0,Wunderground v.1.15,2013-04-08 07:40:00,
2013-04-08 00:50:00,33.3,29.6,29.72,WSW,253,2.0,4.0,86,0.00,,,0.00,0,Wunderground v.1.15,2013-04-08 07:50:00,
2013-04-08 01:00:00,33.4,29.7,29.72,NW,325,1.0,4.0,86,0.00,,,0.00,0,Wunderground v.1.15,2013-04-08 08:00:00,
2013-04-08 01:10:00,33.5,29.5,29.72,WSW,248,3.0,4.0,85,0.00,,,0.00,0,Wunderground v.1.15,2013-04-08 08:10:00,
2013-04-08 01:20:00,33.4,29.7,29.72,WSW,255,5.0,5.0,86,0.00,,,0.00,0,Wunderground v.1.15,2013-04-08 08:20:00,
2013-04-08 01:30:00,33.1,29.4,29.72,West,260,5.0,5.0,86,0.00,,,0.00,0,Wunderground v.1.15,2013-04-08 08:30:00,
2013-04-08 01:40:00,33.4,29.4,29.72,WSW,253,7.0,7.0,85,0.00,,,0.00,0,Wunderground v.1.15,2013-04-08 08:40:00,
2013-04-08 01:50:00,33.5,29.5,29.72,WSW,258,6.0,6.0,85,0.00,,,0.00,0,Wunderground v.1.15,2013-04-08 08:50:00,
2013-04-08 02:00:00,33.7,29.4,29.73,WSW,256,4.0,4.0,84,0.00,,,0.00,0,Wunderground v.1.15,2013-04-08 09:00:00,
2013-04-08 02:05:00,33.7,29.4,29.73,West,266,4.0,4.0,84,0.00,,,0.00,0,Wunderground v.1.15,2013-04-08 09:05:00,
2013-04-08 02:10:00,33.8,29.5,29.74,WSW,258,11.0,11.0,84,0.00,,,0.00,0,Wunderground v.1.15,2013-04-08 09:10:00,
2013-04-08 02:20:00,33.9,29.3,29.74,WSW,251,18.0,18.0,83,0.00,,,0.00,0,Wunderground v.1.15,2013-04-08 09:20:00,
2013-04-08 02:30:00,34.2,29.6,29.74,WSW,250,17.0,17.0,83,0.00,,,0.00,0,Wunderground v.1.15,2013-04-08 09:30:00,
2013-04-08 02:41:00,34.3,29.4,29.75,WSW,254,8.0,8.0,82,0.00,,,0.00,0,Wunderground v.1.15,2013-04-08 09:41:00,
2013-04-08 02:50:00,34.2,29.3,29.74,WSW,252,12.0,14.0,82,0.00,,,0.00,0,Wunderground v.1.15,2013-04-08 09:50:00,
2013-04-08 03:00:00,34.1,29.2,29.75,WSW,246,10.0,10.0,82,0.00,,,0.00,0,Wunderground v.1.15,2013-04-08 10:00:00,
2013-04-08 03:05:00,34.0,29.1,29.75,WSW,252,14.0,14.0,82,0.00,,,0.00,0,Wunderground v.1.15,2013-04-08 10:05:00,
2013-04-08 03:10:00,34.2,29.3,29.75,WSW,247,9.0,9.0,82,0.00,,,0.00,0,Wunderground v.1.15,2013-04-08 10:10:00,
2013-04-08 03:20:00,34.1,29.2,29.76,WSW,254,6.0,6.0,82,0.00,,,0.00,0,Wunderground v.1.15,2013-04-08 10:20:00,
2013-04-08 03:30:00,34.0,29.4,29.76,WSW,250,11.0,11.0,83,0.00,,,0.00,0,Wunderground v.1.15,2013-04-08 10:30:00,
2013-04-08 03:40:00,33.7,28.8,29.76,WSW,248,5.0,5.0,82,0.00,,,0.00,0,Wunderground v.1.15,2013-04-08 10:40:00,
2013-04-08 03:51:00,33.5,28.6,29.76,WSW,256,3.0,4.0,82,0.00,,,0.00,0,Wunderground v.1.15,2013-04-08 10:51:00,
2013-04-08 04:00:00,33.5,28.3,29.77,WNW,282,5.0,5.0,81,0.00,,,0.00,0,Wunderground v.1.15,2013-04-08 11:00:00,
2013-04-08 04:05:00,33.6,28.1,29.77,WNW,295,7.0,7.0,80,0.00,,,0.00,0,Wunderground v.1.15,2013-04-08 11:05:00,
2013-04-08 04:10:00,33.7,27.9,29.78,SW,217,7.0,7.0,79,0.00,,,0.00,0,Wunderground v.1.15,2013-04-08 11:10:00,
2013-04-08 04:20:00,33.8,28.3,29.78,West,260,8.0,8.0,80,0.00,,,0.00,0,Wunderground v.1.15,2013-04-08 11:20:00,
2013-04-08 04:30:00,33.6,28.7,29.78,West,260,3.0,4.0,82,0.00,,,0.00,0,Wunderground v.1.15,2013-04-08 11:30:00,
2013-04-08 04:40:00,33.9,28.4,29.78,WSW,250,10.0,10.0,80,0.00,,,0.00,0,Wunderground v.1.15,2013-04-08 11:40:00,
2013-04-08 04:50:00,33.9,28.7,29.78,WSW,248,4.0,4.0,81,0.00,,,0.00,0,Wunderground v.1.15,2013-04-08 11:50:00,
2013-04-08 05:00:00,33.7,28.2,29.79,WSW,243,7.0,7.0,80,0.00,,,0.00,0,Wunderground v.1.15,2013-04-08 12:00:00,
2013-04-08 05:10:00,33.7,27.9,29.79,West,261,11.0,11.0,79,0.00,,,0.00,0,Wunderground v.1.15,2013-04-08 12:10:00,
2013-04-08 05:20:00,33.6,27.8,29.79,West,273,0.0,4.0,79,0.00,,,0.00,0,Wunderground v.1.15,2013-04-08 12:20:00,
2013-04-08 05:30:00,33.5,27.7,29.79,North,2,3.0,4.0,79,0.00,,,0.00,0,Wunderground v.1.15,2013-04-08 12:30:00,
2013-04-08 05:40:00,33.5,28.0,29.79,West,268,6.0,6.0,80,0.00,,,0.00,0,Wunderground v.1.15,2013-04-08 12:40:00,
2013-04-08 05:50:00,33.5,28.0,29.79,WSW,242,8.0,8.0,80,0.00,,,0.00,0,Wunderground v.1.15,2013-04-08 12:50:00,
2013-04-08 06:00:00,33.7,27.3,29.80,West,265,11.0,11.0,77,0.00,,,0.00,0,Wunderground v.1.15,2013-04-08 13:00:00,
2013-04-08 06:05:00,33.8,27.0,29.80,SW,222,10.0,11.0,76,0.00,,,0.00,0,Wunderground v.1.15,2013-04-08 13:05:00,
2013-04-08 06:10:00,33.9,27.1,29.80,West,266,7.0,7.0,76,0.00,,,0.00,0,Wunderground v.1.15,2013-04-08 13:10:00,
2013-04-08 06:20:00,33.8,27.0,29.82,South,174,4.0,4.0,76,0.00,,,0.00,0,Wunderground v.1.15,2013-04-08 13:20:00,
2013-04-08 06:30:00,33.8,27.0,29.83,North,354,7.0,7.0,76,0.00,,,0.00,0,Wunderground v.1.15,2013-04-08 13:30:00,
2013-04-08 06:40:00,33.8,27.4,29.84,WNW,301,8.0,8.0,77,0.00,,,0.00,0,Wunderground v.1.15,2013-04-08 13:40:00,
2013-04-08 06:50:00,33.8,27.4,29.84,WNW,296,2.0,4.0,77,0.00,,,0.00,0,Wunderground v.1.15,2013-04-08 13:50:00,
2013-04-08 07:00:00,33.8,27.7,29.84,NNW,338,9.0,9.0,78,0.00,,,0.00,0,Wunderground v.1.15,2013-04-08 14:00:00,
2013-04-08 07:10:00,33.6,28.1,29.85,WNW,282,4.0,4.0,80,0.00,,,0.00,0,Wunderground v.1.15,2013-04-08 14:10:00,
2013-04-08 07:20:00,33.3,28.7,29.85,WNW,283,5.0,5.0,83,0.00,,,0.00,0,Wunderground v.1.15,2013-04-08 14:20:00,
2013-04-08 07:30:00,32.8,29.6,29.85,WNW,301,7.0,7.0,88,0.00,,,0.00,0,Wunderground v.1.15,2013-04-08 14:30:00,
2013-04-08 07:41:00,32.5,29.9,29.85,WNW,302,6.0,6.0,90,0.00,,,0.00,0,Wunderground v.1.15,2013-04-08 14:41:00,
2013-04-08 07:50:00,33.1,29.4,29.86,WSW,257,10.0,10.0,86,0.00,,,0.00,0,Wunderground v.1.15,2013-04-08 14:50:00,
2013-04-08 08:00:00,33.5,28.9,29.87,West,270,3.0,4.0,83,0.00,,,0.00,0,Wunderground v.1.15,2013-04-08 15:00:00,
2013-04-08 08:10:00,34.1,29.2,29.87,NNW,330,7.0,7.0,82,0.00,,,0.00,0,Wunderground v.1.15,2013-04-08 15:10:00,
2013-04-08 08:20:00,34.3,29.4,29.88,West,263,8.0,8.0,82,0.00,,,0.00,0,Wunderground v.1.15,2013-04-08 15:20:00,
2013-04-08 08:30:00,34.8,29.3,29.88,NNW,330,4.0,4.0,80,0.00,,,0.00,0,Wunderground v.1.15,2013-04-08 15:30:00,
2013-04-08 08:40:00,34.8,29.3,29.87,WSW,249,11.0,11.0,80,0.00,,,0.00,0,Wunderground v.1.15,2013-04-08 15:40:00,
2013-04-08 08:50:00,35.2,29.0,29.87,West,267,14.0,14.0,78,0.00,,,0.00,0,Wunderground v.1.15,2013-04-08 15:50:00,
2013-04-08 09:00:00,36.8,29.6,29.86,WSW,246,15.0,15.0,75,0.00,,,0.00,0,Wunderground v.1.15,2013-04-08 16:00:00,
2013-04-08 09:10:00,37.0,29.5,29.86,West,261,21.0,21.0,74,0.00,,,0.00,0,Wunderground v.1.15,2013-04-08 16:10:00,
2013-04-08 09:20:00,37.3,29.8,29.86,WSW,257,11.0,11.0,74,0.00,,,0.00,0,Wunderground v.1.15,2013-04-08 16:20:00,
2013-04-08 09:30:00,37.9,30.7,29.86,NW,320,8.0,8.0,75,0.00,,,0.00,0,Wunderground v.1.15,2013-04-08 16:30:00,
2013-04-08 09:40:00,38.0,30.4,29.86,WSW,257,18.0,18.0,74,0.00,,,0.00,0,Wunderground v.1.15,2013-04-08 16:40:00,
2013-04-08 09:50:00,38.7,30.4,29.85,WSW,254,22.0,22.0,72,0.00,,,0.00,0,Wunderground v.1.15,2013-04-08 16:50:00,
2013-04-08 10:00:00,39.3,31.4,29.86,WSW,241,11.0,11.0,73,0.00,,,0.00,0,Wunderground v.1.15,2013-04-08 17:00:00,
2013-04-08 10:10:00,39.7,31.4,29.87,WSW,248,10.0,10.0,72,0.00,,,0.00,0,Wunderground v.1.15,2013-04-08 17:10:00,
2013-04-08 10:20:00,40.1,30.4,29.87,WSW,257,17.0,17.0,68,0.00,,,0.00,0,Wunderground v.1.15,2013-04-08 17:20:00,
2013-04-08 10:30:00,40.4,32.4,29.88,NW,325,8.0,8.0,73,0.00,,,0.00,0,Wunderground v.1.15,2013-04-08 17:30:00,
2013-04-08 10:40:00,41.3,31.9,29.88,WSW,258,9.0,9.0,69,0.00,,,0.00,0,Wunderground v.1.15,2013-04-08 17:40:00,
2013-04-08 10:50:00,40.3,30.6,29.89,WNW,282,5.0,5.0,68,0.00,,,0.00,0,Wunderground v.1.15,2013-04-08 17:50:00,
2013-04-08 11:00:00,40.4,30.7,29.89,WSW,256,10.0,10.0,68,0.00,,,0.00,0,Wunderground v.1.15,2013-04-08 18:00:00,
2013-04-08 11:10:00,41.6,31.1,29.89,SW,230,9.0,9.0,66,0.00,,,0.00,0,Wunderground v.1.15,2013-04-08 18:10:00,
2013-04-08 11:20:00,42.3,32.1,29.89,WSW,256,20.0,20.0,67,0.00,,,0.00,0,Wunderground v.1.15,2013-04-08 18:20:00,
2013-04-08 11:30:00,42.2,30.9,29.89,SW,223,8.0,8.0,64,0.00,,,0.00,0,Wunderground v.1.15,2013-04-08 18:30:00,
2013-04-08 11:40:00,42.6,31.7,29.89,NW,306,11.0,11.0,65,0.00,,,0.00,0,Wunderground v.1.15,2013-04-08 18:40:00,
2013-04-08 11:50:00,41.9,31.4,29.90,WSW,243,9.0,9.0,66,0.00,,,0.00,0,Wunderground v.1.15,2013-04-08 18:50:00,
2013-04-08 12:00:00,42.4,31.8,29.90,NW,325,5.0,5.0,66,0.00,,,0.00,0,Wunderground v.1.15,2013-04-08 19:00:00,
2013-04-08 12:05:00,42.5,32.3,29.90,WNW,288,10.0,10.0,67,0.00,,,0.00,0,Wunderground v.1.15,2013-04-08 19:05:00,
2013-04-08 12:15:00,42.2,31.6,29.90,SSW,194,4.0,14.0,66,0.00,,,0.00,0,Wunderground v.1.15,2013-04-08 19:15:00,
2013-04-08 12:20:00,42.6,31.7,29.90,WSW,246,11.0,11.0,65,0.00,,,0.00,0,Wunderground v.1.15,2013-04-08 19:20:00,
2013-04-08 12:30:00,42.6,32.0,29.90,West,273,12.0,12.0,66,0.00,,,0.00,0,Wunderground v.1.15,2013-04-08 19:30:00,
2013-04-08 12:45:00,42.6,31.3,29.90,WSW,255,5.0,5.0,64,0.00,,,0.00,0,Wunderground v.1.15,2013-04-08 19:45:00,
2013-04-08 12:50:00,42.6,31.7,29.90,NNW,338,7.0,7.0,65,0.00,,,0.00,0,Wunderground v.1.15,2013-04-08 19:50:00,
2013-04-08 13:05:00,42.4,32.2,29.90,WSW,256,12.0,12.0,67,0.00,,,0.00,0,Wunderground v.1.15,2013-04-08 20:05:00,
2013-04-08 13:10:00,42.6,32.4,29.90,WSW,253,15.0,15.0,67,0.00,,,0.00,0,Wunderground v.1.15,2013-04-08 20:10:00,
2013-04-08 13:20:00,43.6,32.2,29.90,WSW,248,12.0,12.0,64,0.00,,,0.00,0,Wunderground v.1.15,2013-04-08 20:20:00,
2013-04-08 13:30:00,43.6,33.4,29.91,WSW,248,14.0,14.0,67,0.00,,,0.00,0,Wunderground v.1.15,2013-04-08 20:30:00,
2013-04-08 13:40:00,44.3,32.9,29.91,WSW,244,8.0,8.0,64,0.00,,,0.00,0,Wunderground v.1.15,2013-04-08 20:40:00,
2013-04-08 13:50:00,44.5,33.1,29.90,West,259,12.0,12.0,64,0.00,,,0.00,0,Wunderground v.1.15,2013-04-08 20:50:00,
2013-04-08 14:00:00,45.8,33.5,29.90,WSW,242,14.0,14.0,62,0.00,,,0.00,0,Wunderground v.1.15,2013-04-08 21:00:00,
2013-04-08 14:05:00,46.3,34.8,29.91,WSW,256,20.0,20.0,64,0.00,,,0.00,0,Wunderground v.1.15,2013-04-08 21:05:00,
2013-04-08 14:10:00,44.9,33.8,29.91,WSW,253,13.0,13.0,65,0.00,,,0.00,0,Wunderground v.1.15,2013-04-08 21:10:00,
2013-04-08 14:20:00,45.2,33.3,29.91,WSW,253,19.0,19.0,63,0.00,,,0.00,0,Wunderground v.1.15,2013-04-08 21:20:00,
2013-04-08 14:30:00,45.4,32.7,29.91,WSW,258,18.0,18.0,61,0.00,,,0.00,0,Wunderground v.1.15,2013-04-08 21:30:00,
2013-04-08 14:40:00,44.5,32.7,29.91,WNW,286,9.0,9.0,63,0.00,,,0.00,0,Wunderground v.1.15,2013-04-08 21:40:00,
2013-04-08 14:50:00,45.2,33.3,29.91,WSW,246,19.0,19.0,63,0.00,,,0.00,0,Wunderground v.1.15,2013-04-08 21:50:00,
2013-04-08 15:00:00,46.0,34.5,29.91,West,260,21.0,21.0,64,0.00,,,0.00,0,Wunderground v.1.15,2013-04-08 22:00:00,
2013-04-08 15:10:00,46.2,35.5,29.92,NNE,24,3.0,4.0,66,0.00,,,0.00,0,Wunderground v.1.15,2013-04-08 22:10:00,
2013-04-08 15:20:00,46.7,34.0,29.91,WSW,252,11.0,11.0,61,0.00,,,0.00,0,Wunderground v.1.15,2013-04-08 22:20:00,
2013-04-08 15:30:00,45.9,34.0,29.92,WSW,237,13.0,13.0,63,0.00,,,0.00,0,Wunderground v.1.15,2013-04-08 22:30:00,
2013-04-08 15:40:00,45.6,32.9,29.92,West,269,11.0,11.0,61,0.00,,,0.00,0,Wunderground v.1.15,2013-04-08 22:40:00,
2013-04-08 15:50:00,46.5,33.8,29.92,WSW,256,21.0,21.0,61,0.00,,,0.00,0,Wunderground v.1.15,2013-04-08 22:50:00,
2013-04-08 16:00:00,46.5,33.4,29.92,West,263,17.0,17.0,60,0.00,,,0.00,0,Wunderground v.1.15,2013-04-08 23:00:00,
2013-04-08 16:06:00,45.8,34.3,29.92,NNW,339,5.0,17.0,64,0.00,,,0.00,0,Wunderground v.1.15,2013-04-08 23:06:00,
2013-04-08 16:15:00,46.3,35.2,29.92,WSW,250,19.0,19.0,65,0.00,,,0.00,0,Wunderground v.1.15,2013-04-08 23:15:00,
2013-04-08 16:20:00,45.9,34.8,29.92,WSW,240,12.0,12.0,65,0.00,,,0.00,0,Wunderground v.1.15,2013-04-08 23:20:00,
2013-04-08 16:30:00,46.2,34.3,29.93,NNW,336,8.0,8.0,63,0.00,,,0.00,0,Wunderground v.1.15,2013-04-08 23:30:00,
2013-04-08 16:41:00,46.0,33.3,29.93,SW,236,5.0,5.0,61,0.00,,,0.00,0,Wunderground v.1.15,2013-04-08 23:41:00,
2013-04-08 16:50:00,45.7,33.4,29.93,NNE,29,11.0,11.0,62,0.00,,,0.00,0,Wunderground v.1.15,2013-04-08 23:50:00,
2013-04-08 17:00:00,46.1,34.2,29.93,WSW,256,16.0,16.0,63,0.00,,,0.00,0,Wunderground v.1.15,2013-04-09 00:00:00,
2013-04-08 17:10:00,45.0,33.9,29.94,West,263,8.0,8.0,65,0.00,,,0.00,0,Wunderground v.1.15,2013-04-09 00:10:00,
2013-04-08 17:20:00,45.5,34.8,29.94,NW,314,17.0,17.0,66,0.00,,,0.00,0,Wunderground v.1.15,2013-04-09 00:20:00,
2013-04-08 17:30:00,45.0,34.3,29.94,SW,222,6.0,6.0,66,0.00,,,0.00,0,Wunderground v.1.15,2013-04-09 00:30:00,
2013-04-08 17:40:00,44.6,33.9,29.95,West,259,14.0,14.0,66,0.00,,,0.00,0,Wunderground v.1.15,2013-04-09 00:40:00,
2013-04-08 17:50:00,44.8,34.5,29.95,SSW,204,4.0,4.0,67,0.00,,,0.00,0,Wunderground v.1.15,2013-04-09 00:50:00,
2013-04-08 18:00:00,44.9,34.2,29.95,WNW,301,7.0,7.0,66,0.00,,,0.00,0,Wunderground v.1.15,2013-04-09 01:00:00,
2013-04-08 18:10:00,44.3,34.4,29.95,WSW,250,12.0,12.0,68,0.00,,,0.00,0,Wunderground v.1.15,2013-04-09 01:10:00,
2013-04-08 18:20:00,43.9,34.4,29.96,WSW,255,8.0,8.0,69,0.00,,,0.00,0,Wunderground v.1.15,2013-04-09 01:20:00,
2013-04-08 18:30:00,43.0,33.5,29.96,WNW,290,6.0,6.0,69,0.00,,,0.00,0,Wunderground v.1.15,2013-04-09 01:30:00,
2013-04-08 18:41:00,42.4,33.3,29.97,WSW,244,6.0,6.0,70,0.00,,,0.00,0,Wunderground v.1.15,2013-04-09 01:41:00,
2013-04-08 18:50:00,42.0,33.6,29.97,WSW,247,4.0,4.0,72,0.00,,,0.00,0,Wunderground v.1.15,2013-04-09 01:50:00,
2013-04-08 19:00:00,41.3,33.3,29.98,West,259,9.0,9.0,73,0.00,,,0.00,0,Wunderground v.1.15,2013-04-09 02:00:00,
2013-04-08 19:10:00,40.8,33.5,29.98,WSW,256,9.0,9.0,75,0.00,,,0.00,0,Wunderground v.1.15,2013-04-09 02:10:00,
2013-04-08 19:20:00,40.3,33.3,29.98,West,269,8.0,8.0,76,0.00,,,0.00,0,Wunderground v.1.15,2013-04-09 02:20:00,
2013-04-08 19:30:00,40.1,33.1,29.98,WNW,286,6.0,6.0,76,0.00,,,0.00,0,Wunderground v.1.15,2013-04-09 02:30:00,
2013-04-08 19:40:00,39.8,33.2,29.98,West,263,11.0,11.0,77,0.00,,,0.00,0,Wunderground v.1.15,2013-04-09 02:40:00,
2013-04-08 19:50:00,39.4,32.8,29.99,WSW,255,5.0,5.0,77,0.00,,,0.00,0,Wunderground v.1.15,2013-04-09 02:50:00,
2013-04-08 20:00:00,39.2,32.6,29.98,West,265,9.0,9.0,77,0.00,,,0.00,0,Wunderground v.1.15,2013-04-09 03:00:00,
2013-04-08 20:05:00,39.1,32.5,29.99,West,269,4.0,9.0,77,0.00,,,0.00,0,Wunderground v.1.15,2013-04-09 03:05:00,
2013-04-08 20:10:00,39.2,32.6,29.99,WSW,255,10.0,10.0,77,0.00,,,0.00,0,Wunderground v.1.15,2013-04-09 03:10:00,
2013-04-08 20:20:00,39.0,32.1,29.99,WSW,254,5.0,5.0,76,0.00,,,0.00,0,Wunderground v.1.15,2013-04-09 03:20:00,
2013-04-08 20:30:00,38.9,32.3,30.00,West,261,6.0,6.0,77,0.00,,,0.00,0,Wunderground v.1.15,2013-04-09 03:30:00,
2013-04-08 20:40:00,38.5,32.2,30.00,WNW,298,3.0,4.0,78,0.00,,,0.00,0,Wunderground v.1.15,2013-04-09 03:40:00,
2013-04-08 20:50:00,38.5,32.2,30.00,West,259,3.0,4.0,78,0.00,,,0.00,0,Wunderground v.1.15,2013-04-09 03:50:00,
2013-04-08 21:00:00,38.2,32.3,30.01,West,259,6.0,6.0,79,0.00,,,0.00,0,Wunderground v.1.15,2013-04-09 04:00:00,
2013-04-08 21:05:00,38.0,32.1,30.01,West,264,7.0,7.0,79,0.00,,,0.00,0,Wunderground v.1.15,2013-04-09 04:05:00,
2013-04-08 21:10:00,37.9,32.3,30.01,WSW,254,4.0,4.0,80,0.00,,,0.00,0,Wunderground v.1.15,2013-04-09 04:10:00,
2013-04-08 21:20:00,38.1,32.5,30.00,WSW,254,9.0,9.0,80,0.00,,,0.00,0,Wunderground v.1.15,2013-04-09 04:20:00,
2013-04-08 21:25:00,38.3,32.4,30.01,WSW,256,5.0,9.0,79,0.00,,,0.00,0,Wunderground v.1.15,2013-04-09 04:25:00,
2013-04-08 21:30:00,38.2,32.6,30.01,WSW,247,2.0,4.0,80,0.00,,,0.00,0,Wunderground v.1.15,2013-04-09 04:30:00,
2013-04-08 21:40:00,37.9,32.3,30.01,West,259,4.0,4.0,80,0.00,,,0.00,0,Wunderground v.1.15,2013-04-09 04:40:00,
2013-04-08 21:50:00,37.7,32.4,30.01,West,266,6.0,6.0,81,0.00,,,0.00,0,Wunderground v.1.15,2013-04-09 04:50:00,
2013-04-08 22:00:00,37.4,32.1,30.01,West,279,2.0,4.0,81,0.00,,,0.00,0,Wunderground v.1.15,2013-04-09 05:00:00,
2013-04-08 22:05:00,37.4,32.1,30.01,WSW,257,3.0,4.0,81,0.00,,,0.00,0,Wunderground v.1.15,2013-04-09 05:05:00,
2013-04-08 22:10:00,37.3,32.0,30.02,WSW,256,0.0,4.0,81,0.00,,,0.00,0,Wunderground v.1.15,2013-04-09 05:10:00,
2013-04-08 22:20:00,37.0,31.7,30.02,West,267,0.0,4.0,81,0.00,,,0.00,0,Wunderground v.1.15,2013-04-09 05:20:00,
2013-04-08 22:30:00,36.5,31.5,30.02,NW,317,3.0,4.0,82,0.00,,,0.00,0,Wunderground v.1.15,2013-04-09 05:30:00,
2013-04-08 22:40:00,36.3,31.6,30.02,NW,325,2.0,4.0,83,0.00,,,0.00,0,Wunderground v.1.15,2013-04-09 05:40:00,
2013-04-08 22:50:00,36.1,31.4,30.02,NW,325,0.0,4.0,83,0.00,,,0.00,0,Wunderground v.1.15,2013-04-09 05:50:00,
2013-04-08 23:00:00,35.4,31.3,30.03,ENE,78,0.0,4.0,85,0.00,,,0.00,0,Wunderground v.1.15,2013-04-09 06:00:00,
2013-04-08 23:10:00,35.1,31.3,30.02,NE,55,1.0,4.0,86,0.00,,,0.00,0,Wunderground v.1.15,2013-04-09 06:10:00,
2013-04-08 23:20:00,35.1,31.0,30.03,NE,55,0.0,4.0,85,0.00,,,0.00,0,Wunderground v.1.15,2013-04-09 06:20:00,
2013-04-08 23:30:00,33.5,29.8,30.03,NE,55,0.0,4.0,86,0.00,,,0.00,0,Wunderground v.1.15,2013-04-09 06:30:00,
2013-04-08 23:40:00,32.1,28.9,30.03,NE,55,0.0,4.0,88,0.00,,,0.00,0,Wunderground v.1.15,2013-04-09 06:40:00,
2013-04-08 23:50:00,30.7,28.1,30.03,South,178,2.0,4.0,90,0.00,,,0.00,0,Wunderground v.1.15,2013-04-09 06:50:00,